createdAt,value
2019-02-27T00:00:17.833Z,38.80
2019-02-27T00:02:46.555Z,38.80
2019-02-27T00:05:15.333Z,39.10
2019-02-27T00:07:44.055Z,38.90
2019-02-27T00:10:12.719Z,39.00
2019-02-27T00:12:41.456Z,39.10
2019-02-27T00:15:10.114Z,39.10
2019-02-27T00:17:38.811Z,38.90
2019-02-27T00:20:08.012Z,38.80
2019-02-27T00:22:36.697Z,39.00
2019-02-27T00:25:05.593Z,38.80
2019-02-27T00:27:34.304Z,38.80
2019-02-27T00:30:05.655Z,38.80
2019-02-27T00:32:33.402Z,39.00
2019-02-27T00:35:06.532Z,38.70
2019-02-27T00:37:32.531Z,38.80
2019-02-27T00:40:05.366Z,38.70
2019-02-27T00:42:33.791Z,39.20
2019-02-27T00:45:02.155Z,39.00
2019-02-27T00:47:30.846Z,39.20
2019-02-27T00:49:59.687Z,39.20
2019-02-27T00:52:28.462Z,39.20
2019-02-27T00:54:57.186Z,39.20
2019-02-27T00:57:29.614Z,39.10
2019-02-27T00:59:58.287Z,39.20
2019-02-27T01:02:26.978Z,39.50
2019-02-27T01:04:55.649Z,39.70
2019-02-27T01:07:24.352Z,39.80
2019-02-27T01:09:53.032Z,39.90
2019-02-27T01:12:22.947Z,40.10
2019-02-27T01:14:52.192Z,40.70
2019-02-27T01:17:23.603Z,40.20
2019-02-27T01:19:51.351Z,40.20
2019-02-27T01:22:20.035Z,40.30
2019-02-27T01:24:50.108Z,40.00
2019-02-27T01:27:19.139Z,39.90
2019-02-27T01:29:50.967Z,40.20
2019-02-27T01:32:18.291Z,40.20
2019-02-27T01:34:46.943Z,41.00
2019-02-27T01:37:15.633Z,40.80
2019-02-27T01:39:44.775Z,41.10
2019-02-27T01:42:13.583Z,41.00
2019-02-27T01:44:43.955Z,41.00
2019-02-27T01:47:13.970Z,41.10
2019-02-27T01:49:42.647Z,41.00
2019-02-27T01:52:11.342Z,41.20
2019-02-27T01:54:40.021Z,41.30
2019-02-27T01:57:08.717Z,41.30
2019-02-27T01:59:37.392Z,41.20
2019-02-27T02:02:06.092Z,41.20
2019-02-27T02:04:34.858Z,41.20
2019-02-27T02:07:03.999Z,41.40
2019-02-27T02:09:35.442Z,41.20
2019-02-27T02:12:08.657Z,41.00
2019-02-27T02:14:46.522Z,41.10
2019-02-27T02:17:38.189Z,41.40
2019-02-27T02:20:27.242Z,41.40
2019-02-27T02:23:02.488Z,41.30
2019-02-27T02:25:34.157Z,41.50
2019-02-27T02:28:08.709Z,41.30
2019-02-27T02:30:43.287Z,41.50
2019-02-27T02:33:17.867Z,41.50
2019-02-27T02:36:07.605Z,41.60
2019-02-27T02:38:57.552Z,41.70
2019-02-27T02:41:48.029Z,41.60
2019-02-27T02:44:23.064Z,41.40
2019-02-27T02:47:00.760Z,41.40
2019-02-27T02:49:42.026Z,41.70
2019-02-27T02:52:30.148Z,41.60
2019-02-27T02:55:01.772Z,41.60
2019-02-27T02:57:36.236Z,41.70
2019-02-27T03:00:31.310Z,41.50
2019-02-27T03:03:15.043Z,41.60
2019-02-27T03:06:03.202Z,41.80
2019-02-27T03:08:46.975Z,41.80
2019-02-27T03:11:30.309Z,42.00
2019-02-27T03:14:24.513Z,42.10
2019-02-27T03:16:56.173Z,42.10
2019-02-27T03:19:41.762Z,42.20
2019-02-27T03:22:15.732Z,42.00
2019-02-27T03:24:47.495Z,42.30
2019-02-27T03:27:43.351Z,42.30
2019-02-27T03:30:34.022Z,42.30
2019-02-27T03:33:23.374Z,42.20
2019-02-27T03:36:09.344Z,42.30
2019-02-27T03:38:55.819Z,42.20
2019-02-27T03:41:58.443Z,42.40
2019-02-27T03:44:35.549Z,42.30
2019-02-27T03:47:15.442Z,42.50
2019-02-27T03:49:55.336Z,42.50
2019-02-27T03:52:58.913Z,42.60
2019-02-27T03:55:33.556Z,42.70
2019-02-27T03:58:07.995Z,42.70
2019-02-27T04:00:49.839Z,42.70
2019-02-27T04:03:21.992Z,43.50
2019-02-27T04:05:53.663Z,42.90
2019-02-27T04:08:33.806Z,42.90
2019-02-27T04:11:05.601Z,42.70
2019-02-27T04:13:32.916Z,42.90
2019-02-27T04:16:01.608Z,43.20
2019-02-27T04:18:29.098Z,43.10
2019-02-27T04:20:57.755Z,43.10
2019-02-27T04:23:26.459Z,43.20
2019-02-27T04:25:55.119Z,43.10
2019-02-27T04:28:23.829Z,43.20
2019-02-27T04:30:52.531Z,43.30
2019-02-27T04:33:23.296Z,43.30
2019-02-27T04:35:51.608Z,43.20
2019-02-27T04:38:20.311Z,43.30
2019-02-27T04:40:48.995Z,43.20
2019-02-27T04:43:17.695Z,43.20
2019-02-27T04:45:46.704Z,43.30
2019-02-27T04:48:16.209Z,43.40
2019-02-27T04:50:44.893Z,43.50
2019-02-27T04:53:13.617Z,43.50
2019-02-27T04:55:42.346Z,43.50
2019-02-27T04:58:11.045Z,43.80
2019-02-27T05:00:39.749Z,43.70
2019-02-27T05:03:08.507Z,43.50
2019-02-27T05:05:39.068Z,43.60
2019-02-27T05:08:07.621Z,43.60
2019-02-27T05:10:38.140Z,43.90
2019-02-27T05:13:06.693Z,43.70
2019-02-27T05:15:38.875Z,43.90
2019-02-27T05:18:05.768Z,43.70
2019-02-27T05:20:34.466Z,43.90
2019-02-27T05:23:03.165Z,43.70
2019-02-27T05:25:31.842Z,43.70
2019-02-27T05:28:01.522Z,43.70
2019-02-27T05:30:30.942Z,43.80
2019-02-27T05:33:02.059Z,43.50
2019-02-27T05:35:30.167Z,43.70
2019-02-27T05:37:58.869Z,43.90
2019-02-27T05:40:27.558Z,44.00
2019-02-27T05:42:56.231Z,44.00
2019-02-27T05:45:24.948Z,43.90
2019-02-27T05:47:53.649Z,44.00
2019-02-27T05:50:22.312Z,44.30
2019-02-27T05:52:51.007Z,44.00
2019-02-27T05:55:19.759Z,44.10
2019-02-27T05:57:48.430Z,44.30
2019-02-27T06:00:19.892Z,44.00
2019-02-27T06:02:48.594Z,44.00
2019-02-27T06:05:17.287Z,43.90
2019-02-27T06:07:45.963Z,44.00
2019-02-27T06:10:19.854Z,44.20
2019-02-27T06:12:46.665Z,44.30
2019-02-27T06:15:17.120Z,44.30
2019-02-27T06:17:48.821Z,44.20
2019-02-27T06:20:16.243Z,44.40
2019-02-27T06:22:44.939Z,44.10
2019-02-27T06:25:21.558Z,44.40
2019-02-27T06:27:48.612Z,44.50
2019-02-27T06:30:18.801Z,44.50
2019-02-27T06:32:47.536Z,44.30
2019-02-27T06:35:16.514Z,44.70
2019-02-27T06:37:45.184Z,44.70
2019-02-27T06:40:17.882Z,44.80
2019-02-27T06:42:46.201Z,44.80
2019-02-27T06:45:18.508Z,44.50
2019-02-27T06:47:47.219Z,44.60
2019-02-27T06:50:16.719Z,45.00
2019-02-27T06:52:45.514Z,45.10
2019-02-27T06:55:15.112Z,45.10
2019-02-27T06:57:43.787Z,45.00
2019-02-27T07:00:21.107Z,45.00
2019-02-27T07:02:49.890Z,45.30
2019-02-27T07:05:18.623Z,45.20
2019-02-27T07:07:47.323Z,45.40
2019-02-27T07:10:19.475Z,45.10
2019-02-27T07:12:54.466Z,45.20
2019-02-27T07:15:21.478Z,45.60
2019-02-27T07:17:50.189Z,45.50
2019-02-27T07:20:24.045Z,45.40
2019-02-27T07:22:49.342Z,45.20
2019-02-27T07:25:19.219Z,45.30
2019-02-27T07:27:47.936Z,45.40
2019-02-27T07:30:20.573Z,45.60
2019-02-27T07:32:49.281Z,45.60
2019-02-27T07:35:17.962Z,45.40
2019-02-27T07:37:47.990Z,45.80
2019-02-27T07:40:17.955Z,45.60
2019-02-27T07:42:46.649Z,45.70
2019-02-27T07:45:22.506Z,45.60
2019-02-27T07:47:51.075Z,45.90
2019-02-27T07:50:21.535Z,45.50
2019-02-27T07:52:51.925Z,45.40
2019-02-27T07:55:22.912Z,45.50
2019-02-27T07:57:51.164Z,45.30
2019-02-27T08:00:23.470Z,45.10
2019-02-27T08:02:52.124Z,45.10
2019-02-27T08:05:22.295Z,45.10
2019-02-27T08:07:50.959Z,45.10
2019-02-27T08:10:24.524Z,45.10
2019-02-27T08:12:55.933Z,44.90
2019-02-27T08:15:25.278Z,44.90
2019-02-27T08:17:57.598Z,44.90
2019-02-27T08:20:24.716Z,44.70
2019-02-27T08:22:53.500Z,44.90
2019-02-27T08:25:22.440Z,44.80
2019-02-27T08:27:51.112Z,44.80
2019-02-27T08:30:27.676Z,44.70
2019-02-27T08:32:56.350Z,45.10
2019-02-27T08:35:25.064Z,45.30
2019-02-27T08:38:02.161Z,44.60
2019-02-27T08:40:25.254Z,44.50
2019-02-27T08:42:54.106Z,44.70
2019-02-27T08:45:26.781Z,44.10
2019-02-27T08:47:53.210Z,43.10
2019-02-27T08:50:23.310Z,43.10
2019-02-27T08:52:52.060Z,43.10
2019-02-27T08:55:22.557Z,42.90
2019-02-27T08:57:55.605Z,43.30
2019-02-27T09:00:30.545Z,42.60
2019-02-27T09:03:02.415Z,42.50
2019-02-27T09:05:29.683Z,42.50
2019-02-27T09:07:58.397Z,42.10
2019-02-27T09:10:30.503Z,42.10
2019-02-27T09:13:05.476Z,42.00
2019-02-27T09:15:28.511Z,42.00
2019-02-27T09:17:59.268Z,41.80
2019-02-27T09:20:27.639Z,41.60
2019-02-27T09:22:56.314Z,41.20
2019-02-27T09:25:25.106Z,40.90
2019-02-27T09:27:54.884Z,40.50
2019-02-27T09:30:28.925Z,40.00
2019-02-27T09:32:55.415Z,40.30
2019-02-27T09:35:24.121Z,40.20
2019-02-27T09:37:52.800Z,39.40
2019-02-27T09:40:29.842Z,39.40
2019-02-27T09:42:58.851Z,38.90
2019-02-27T09:45:35.538Z,38.20
2019-02-27T11:21:52.013Z,23.70
2019-02-27T11:24:20.702Z,24.00
2019-02-27T11:26:49.613Z,24.30
2019-02-27T11:29:18.302Z,24.10
2019-02-27T11:31:46.956Z,24.00
2019-02-27T11:34:16.241Z,23.90
2019-02-27T11:36:45.186Z,24.20
2019-02-27T11:39:13.994Z,24.50
2019-02-27T11:41:42.790Z,24.50
2019-02-27T11:44:13.958Z,24.50
2019-02-27T11:46:42.231Z,24.50
2019-02-27T11:49:10.900Z,24.60
2019-02-27T11:51:39.614Z,24.60
2019-02-27T11:54:09.113Z,24.60
2019-02-27T11:56:38.062Z,24.70
2019-02-27T11:59:06.840Z,24.90
2019-02-27T12:01:35.607Z,24.80
2019-02-27T12:04:04.290Z,24.60
2019-02-27T12:06:33.291Z,24.60
2019-02-27T12:09:02.055Z,24.60
2019-02-27T12:11:30.754Z,24.70
2019-02-27T12:13:59.608Z,24.80
2019-02-27T12:16:28.283Z,24.60
2019-02-27T12:18:57.015Z,24.40
2019-02-27T12:21:26.316Z,24.70
2019-02-27T12:23:55.107Z,24.90
2019-02-27T12:26:23.821Z,24.70
2019-02-27T12:28:52.847Z,24.60
2019-02-27T12:31:21.801Z,24.40
2019-02-27T12:33:50.492Z,24.30
2019-02-27T12:36:19.467Z,24.30
2019-02-27T12:38:50.591Z,24.50
2019-02-27T12:41:19.371Z,24.60
2019-02-27T12:43:52.221Z,24.70
2019-02-27T12:46:18.472Z,24.70
2019-02-27T12:48:47.172Z,24.50
2019-02-27T12:51:15.919Z,24.30
2019-02-27T12:53:44.649Z,24.30
2019-02-27T12:56:13.615Z,24.20
2019-02-27T12:58:42.335Z,24.10
2019-02-27T13:01:11.019Z,24.20
2019-02-27T13:03:42.267Z,24.20
2019-02-27T13:06:10.148Z,24.30
2019-02-27T13:08:40.345Z,24.30
2019-02-27T13:11:09.067Z,24.40
2019-02-27T13:13:37.770Z,24.30
2019-02-27T13:16:06.467Z,24.00
2019-02-27T13:18:35.150Z,23.70
2019-02-27T13:21:04.177Z,23.90
2019-02-27T13:23:32.865Z,23.80
2019-02-27T13:26:01.539Z,23.60
2019-02-27T13:28:30.431Z,23.30
2019-02-27T13:30:59.156Z,23.30
2019-02-27T13:33:27.912Z,23.30
2019-02-27T13:35:59.527Z,23.10
2019-02-27T13:38:27.072Z,23.10
2019-02-27T13:40:55.770Z,23.00
2019-02-27T13:43:27.093Z,22.30
2019-02-27T13:45:54.882Z,22.80
2019-02-27T13:48:23.751Z,22.40
2019-02-27T13:50:52.550Z,22.10
2019-02-27T13:53:25.796Z,22.30
2019-02-27T13:55:51.723Z,22.20
2019-02-27T13:58:20.422Z,22.20
2019-02-27T14:00:49.099Z,22.30
2019-02-27T14:03:17.930Z,22.00
2019-02-27T14:05:46.628Z,21.90
2019-02-27T14:08:15.491Z,21.90
2019-02-27T14:10:44.218Z,21.70
2019-02-27T14:13:14.398Z,21.70
2019-02-27T14:15:44.731Z,21.80
2019-02-27T14:18:16.140Z,21.50
2019-02-27T14:20:48.687Z,21.40
2019-02-27T14:23:17.557Z,21.40
2019-02-27T14:25:46.326Z,21.30
2019-02-27T14:28:15.006Z,21.40
2019-02-27T14:30:46.804Z,21.70
2019-02-27T14:33:15.551Z,21.90
2019-02-27T14:35:44.255Z,22.00
2019-02-27T14:38:12.940Z,22.80
2019-02-27T14:40:41.660Z,21.90
2019-02-27T14:43:10.467Z,22.00
2019-02-27T14:45:40.641Z,22.10
2019-02-27T14:48:09.743Z,22.10
2019-02-27T14:50:40.644Z,21.90
2019-02-27T14:53:09.321Z,21.60
2019-02-27T14:55:39.480Z,21.80
2019-02-27T14:58:08.266Z,22.10
2019-02-27T15:00:40.898Z,21.70
2019-02-27T15:03:08.565Z,21.70
2019-02-27T15:05:42.800Z,21.70
2019-02-27T15:08:07.666Z,21.50
2019-02-27T15:10:40.278Z,21.80
2019-02-27T15:13:06.864Z,21.80
2019-02-27T15:15:35.617Z,21.80
2019-02-27T15:18:04.728Z,21.80
2019-02-27T15:20:34.645Z,21.90
2019-02-27T15:23:03.509Z,21.80
2019-02-27T15:25:32.993Z,21.70
2019-02-27T15:28:01.734Z,21.80
2019-02-27T15:30:31.743Z,21.80
2019-02-27T15:33:04.015Z,22.00
2019-02-27T15:35:30.939Z,21.90
2019-02-27T15:37:59.804Z,21.90
2019-02-27T15:40:33.302Z,21.80
2019-02-27T15:43:10.694Z,21.80
2019-02-27T15:45:32.397Z,21.90
2019-02-27T15:48:06.369Z,22.20
2019-02-27T15:50:33.209Z,22.30
2019-02-27T15:53:01.883Z,22.10
2019-02-27T15:55:34.349Z,22.10
2019-02-27T15:58:06.101Z,22.30
2019-02-27T16:00:34.807Z,22.50
2019-02-27T16:03:03.513Z,22.50
2019-02-27T16:05:32.195Z,22.30
2019-02-27T16:08:00.909Z,22.60
2019-02-27T16:10:29.889Z,22.60
2019-02-27T16:13:00.890Z,22.90
2019-02-27T16:15:29.111Z,22.80
2019-02-27T16:17:57.854Z,22.90
2019-02-27T16:20:27.690Z,23.00
2019-02-27T16:22:56.704Z,22.90
2019-02-27T16:25:31.401Z,22.90
2019-02-27T16:28:00.119Z,22.90
2019-02-27T16:30:32.425Z,22.80
2019-02-27T16:33:01.251Z,22.90
2019-02-27T16:35:29.990Z,22.90
2019-02-27T16:37:58.713Z,22.90
2019-02-27T16:40:31.189Z,22.80
2019-02-27T16:43:00.250Z,22.90
2019-02-27T16:45:39.490Z,23.00
2019-02-27T16:48:08.216Z,23.00
2019-02-27T16:50:37.006Z,23.20
2019-02-27T16:53:06.404Z,23.10
2019-02-27T16:55:36.971Z,23.10
2019-02-27T16:58:05.703Z,23.20
2019-02-27T17:00:38.480Z,23.50
2019-02-27T17:03:12.793Z,23.80
2019-02-27T17:05:40.355Z,23.70
2019-02-27T17:08:08.234Z,23.80
2019-02-27T17:10:40.406Z,23.60
2019-02-27T17:13:09.152Z,23.90
2019-02-27T17:15:39.952Z,24.30
2019-02-27T17:18:08.546Z,24.40
2019-02-27T17:20:37.603Z,24.50
2019-02-27T17:23:10.424Z,24.80
2019-02-27T17:25:36.913Z,24.90
2019-02-27T17:28:05.622Z,25.10
2019-02-27T17:30:37.817Z,25.30
2019-02-27T17:33:06.255Z,25.20
2019-02-27T17:35:34.963Z,25.50
2019-02-27T17:38:05.095Z,25.60
2019-02-27T17:40:36.927Z,25.60
2019-02-27T17:43:06.520Z,25.70
2019-02-27T17:45:34.733Z,25.60
2019-02-27T17:48:03.472Z,25.80
2019-02-27T17:50:32.465Z,25.90
2019-02-27T17:53:01.319Z,25.90
2019-02-27T17:55:30.173Z,26.10
2019-02-27T17:57:59.295Z,26.10
2019-02-27T18:00:34.413Z,26.20
2019-02-27T18:03:04.886Z,26.30
2019-02-27T18:05:33.525Z,26.20
2019-02-27T18:08:03.496Z,26.30
2019-02-27T18:10:37.246Z,26.40
2019-02-27T18:13:04.354Z,26.70
2019-02-27T18:15:34.682Z,27.00
2019-02-27T18:18:03.467Z,26.80
2019-02-27T18:20:32.379Z,26.70
2019-02-27T18:23:01.154Z,26.80
2019-02-27T18:25:29.815Z,26.70
2019-02-27T18:27:59.600Z,26.70
2019-02-27T18:30:28.627Z,26.80
2019-02-27T18:32:57.311Z,26.50
2019-02-27T18:35:28.777Z,26.70
2019-02-27T18:37:56.537Z,26.60
2019-02-27T18:40:25.245Z,26.60
2019-02-27T18:42:56.452Z,26.40
2019-02-27T18:45:28.825Z,27.40
2019-02-27T18:47:58.767Z,26.40
2019-02-27T18:50:27.649Z,26.90
2019-02-27T18:52:56.336Z,27.00
2019-02-27T18:55:29.538Z,27.10
2019-02-27T18:57:55.463Z,27.00
2019-02-27T19:00:27.404Z,27.20
2019-02-27T19:03:05.071Z,27.30
2019-02-27T19:05:33.776Z,27.10
2019-02-27T19:08:02.523Z,27.30
2019-02-27T19:10:31.241Z,27.30
2019-02-27T19:13:01.071Z,27.40
2019-02-27T19:15:30.041Z,27.50
2019-02-27T19:17:59.418Z,27.60
2019-02-27T19:20:34.083Z,27.60
2019-02-27T19:23:03.817Z,27.60
2019-02-27T19:25:34.801Z,27.70
2019-02-27T19:28:02.972Z,27.50
2019-02-27T19:30:31.727Z,27.70
2019-02-27T19:33:02.034Z,27.70
2019-02-27T19:35:31.085Z,27.70
2019-02-27T19:37:59.782Z,27.70
2019-02-27T19:40:30.528Z,27.80
2019-02-27T19:43:01.825Z,27.80
2019-02-27T19:45:30.568Z,27.70
2019-02-27T19:47:59.256Z,28.00
2019-02-27T19:50:28.552Z,28.10
2019-02-27T19:52:57.333Z,28.20
2019-02-27T19:55:27.454Z,28.10
2019-02-27T19:57:56.568Z,28.20
2019-02-27T20:00:33.880Z,28.20
2019-02-27T20:03:01.543Z,28.30
2019-02-27T20:05:30.961Z,28.50
2019-02-27T20:07:59.708Z,28.60
2019-02-27T20:10:31.018Z,28.60
2019-02-27T20:12:59.164Z,28.80
2019-02-27T20:15:27.922Z,29.00
2019-02-27T20:17:56.714Z,29.10
2019-02-27T20:20:26.129Z,29.00
2019-02-27T20:22:55.402Z,29.00
2019-02-27T20:25:26.399Z,29.00
2019-02-27T20:27:57.986Z,29.00
2019-02-27T20:30:26.010Z,29.20
2019-02-27T20:32:54.970Z,29.20
2019-02-27T20:35:23.638Z,29.20
2019-02-27T20:37:52.428Z,29.30
2019-02-27T20:40:21.871Z,29.20
2019-02-27T20:42:54.716Z,29.20
2019-02-27T20:45:22.183Z,29.40
2019-02-27T20:47:57.764Z,29.30
2019-02-27T20:50:34.616Z,29.90
2019-02-27T20:52:56.372Z,29.50
2019-02-27T20:55:25.055Z,29.60
2019-02-27T20:57:53.781Z,29.70
2019-02-27T21:00:22.829Z,29.90
2019-02-27T21:02:53.510Z,30.00
2019-02-27T21:05:22.410Z,30.00
2019-02-27T21:07:51.209Z,30.20
2019-02-27T21:10:25.578Z,30.30
2019-02-27T21:12:54.566Z,30.40
2019-02-27T21:15:24.855Z,30.50
2019-02-27T21:17:57.566Z,30.40
2019-02-27T21:20:24.339Z,30.60
2019-02-27T21:22:53.095Z,30.90
2019-02-27T21:25:21.829Z,30.90
2019-02-27T21:27:50.573Z,31.20
2019-02-27T21:30:27.015Z,31.50
2019-02-27T21:32:55.700Z,31.60
2019-02-27T21:35:28.684Z,31.70
2019-02-27T21:37:54.902Z,31.90
2019-02-27T21:40:23.584Z,31.90
2019-02-27T21:42:52.322Z,31.90
2019-02-27T21:45:22.286Z,32.10
2019-02-27T21:47:52.618Z,32.50
2019-02-27T21:50:25.118Z,32.10
2019-02-27T21:52:54.708Z,31.80
2019-02-27T21:55:24.478Z,31.90
2019-02-27T21:57:53.233Z,32.20
2019-02-27T22:00:30.628Z,32.00
2019-02-27T22:03:03.631Z,32.50
2019-02-27T22:05:30.289Z,31.90
2019-02-27T22:07:59.024Z,32.00
2019-02-27T22:10:27.712Z,31.70
2019-02-27T22:12:56.393Z,32.00
2019-02-27T22:15:30.057Z,32.10
2019-02-27T22:17:58.745Z,32.00
2019-02-27T22:20:27.447Z,31.90
2019-02-27T22:22:56.167Z,31.80
2019-02-27T22:25:30.290Z,32.10
2019-02-27T22:27:55.297Z,32.30
2019-02-27T22:30:24.292Z,32.90
2019-02-27T22:32:53.059Z,32.60
2019-02-27T22:35:21.774Z,32.60
2019-02-27T22:37:52.412Z,32.70
2019-02-27T22:40:22.235Z,32.60
2019-02-27T22:42:50.904Z,32.50
2019-02-27T22:45:22.788Z,32.40
2019-02-27T22:47:54.028Z,32.70
2019-02-27T22:50:22.487Z,32.90
2019-02-27T22:52:54.778Z,32.30
2019-02-27T22:55:21.647Z,32.90
2019-02-27T22:57:50.366Z,33.10
2019-02-27T23:00:56.006Z,33.10
2019-02-27T23:03:33.298Z,33.10
2019-02-27T23:06:02.201Z,32.80
2019-02-27T23:08:30.895Z,33.40
2019-02-27T23:11:02.851Z,33.60
2019-02-27T23:13:30.843Z,33.70
2019-02-27T23:15:59.569Z,33.70
2019-02-27T23:18:28.395Z,33.80
2019-02-27T23:20:57.084Z,34.00
2019-02-27T23:23:26.003Z,33.90
2019-02-27T23:25:54.690Z,34.10
2019-02-27T23:28:23.391Z,34.20
2019-02-27T23:30:52.102Z,34.20
2019-02-27T23:33:21.022Z,34.10
2019-02-27T23:35:50.373Z,34.10
2019-02-27T23:38:19.738Z,34.20
2019-02-27T23:40:50.164Z,34.50
2019-02-27T23:43:19.735Z,34.40
2019-02-27T23:45:48.767Z,34.60
2019-02-27T23:48:17.460Z,34.60
2019-02-27T23:50:46.169Z,34.70
2019-02-27T23:53:15.245Z,34.70
2019-02-27T23:55:44.647Z,34.80
2019-02-27T23:58:14.216Z,34.80
